Texas Logo

Northwest, TX Single Family Real Estate Listings

3122 Total Real Estate Listings * Click on table heading to sort
Date Posted Property Type Style Address Price Living Area Lot Size Price/Sq Ft.
2018-05-26 Single Family Traditional 7911 Crystal Moon Drive Houston, TX 77040 $289,000 3,170 sq. ft. 6,970 sq. ft. $91
2018-05-26 Single Family Traditional 16646 Loch Katrine Lane Houston, TX 77084 $175,000 1,738 sq. ft. 6,534 sq. ft. $101
2018-05-26 Single Family Traditional 2019 Bauer Drive Houston, TX 77080 $799,000 5,370 sq. ft. 22,651 sq. ft. $149
2018-05-26 Single Family Traditional 12135 Canyon Arbor Way Houston, TX 77095 $310,000 2,928 sq. ft. 9,148 sq. ft. $106
2018-05-25 Single Family Traditional 6502 Ashton Street Houston, TX 77091 $209,921 1,741 sq. ft. 8,276 sq. ft. $121
2018-05-25 Single Family Traditional 2014 Rainlily Drive Houston, TX 77084 $179,900 1,844 sq. ft. 7,405 sq. ft. $98
2018-05-25 Single Family Traditional 12007 Normont Drive Houston, TX 77070 $295,000 3,134 sq. ft. 9,583 sq. ft. $94
2018-05-25 Single Family Contemporary/Modern 5853 Post Oak Lane Houston, TX 77055 $439,900 2,242 sq. ft. $196
2018-05-25 Single Family Traditional 7715 Stonesdale Drive Houston, TX 77095 $319,900 3,352 sq. ft. 8,712 sq. ft. $95
2018-05-25 Single Family Traditional 8010 Western Trail Drive Houston, TX 77040 $155,000 1,255 sq. ft. 6,098 sq. ft. $124
2018-05-25 Single Family Traditional 7811 Autumn Laurel Trail Houston, TX 77095 $205,000 1,956 sq. ft. 7,405 sq. ft. $105
2018-05-25 Single Family Traditional 5351 Pine Cliff Drive Houston, TX 77084 $185,000 1,994 sq. ft. 7,841 sq. ft. $93
2018-05-25 Single Family English; Traditional 1522 Big Horn Drive Houston, TX 77090 $199,000 2,821 sq. ft. 9,148 sq. ft. $71
2018-05-25 Single Family Traditional 8126 Fernbrook Lane Houston, TX 77070 $229,000 2,884 sq. ft. 9,583 sq. ft. $79
2018-05-25 Single Family Traditional 17026 Feather Fall Lane Houston, TX 77095 $225,000 2,231 sq. ft. 6,970 sq. ft. $101
2018-05-25 Single Family Traditional 11215 Lorton Drive Houston, TX 77070 $385,000 3,719 sq. ft. 20,038 sq. ft. $104
2018-05-25 Single Family Traditional 12503 Cherry Creek Bend Lane Houston, TX 77041 $489,900 3,822 sq. ft. 9,148 sq. ft. $128
2018-05-25 Single Family Traditional 15502 Ripplewind Lane Houston, TX 77068 $207,500 2,471 sq. ft. 10,019 sq. ft. $84
2018-05-25 Single Family Traditional 12026 Fallbrook Drive Houston, TX 77065 $150,000 1,583 sq. ft. 7,405 sq. ft. $95
2018-05-25 Single Family Traditional 8514 Twillingate Lane Houston, TX 77040 $179,900 1,832 sq. ft. 3,920 sq. ft. $98
2018-05-25 Single Family Ranch 2422 Stonecrest Drive Houston, TX 77018 $324,000 1,900 sq. ft. 8,276 sq. ft. $171
2018-05-25 Single Family Traditional 7502 Highland Farms Road Houston, TX 77095 $258,000 2,416 sq. ft. 11,761 sq. ft. $107
2018-05-25 Single Family Traditional 21410 Colton Cove Drive Houston, TX 77095 $209,900 2,030 sq. ft. 5,663 sq. ft. $103
2018-05-25 Single Family Traditional 4410 Pine Mountain Ct Houston, TX 77084 $225,000 2,800 sq. ft. 8,276 sq. ft. $80
2018-05-25 Single Family Traditional 1807 Gardenia Drive Houston, TX 77018 $435,000 2,200 sq. ft. 7,841 sq. ft. $198
2018-05-25 Single Family Traditional 9915 Willowbridge Park Boulevard Houston, TX 77064 $309,000 2,613 sq. ft. 9,583 sq. ft. $118
2018-05-25 Single Family Traditional 9203 Willow Crossing Drive Houston, TX 77064 $214,000 1,950 sq. ft. 10,019 sq. ft. $110
2018-05-25 Single Family Traditional 9211 Brechin Court Houston, TX 77095 $169,900 1,608 sq. ft. 5,663 sq. ft. $106
2018-05-25 Single Family Colonial 10538 Normont Drive Houston, TX 77070 $297,900 2,986 sq. ft. 13,068 sq. ft. $100
2018-05-25 Single Family Traditional 10307 Emerald Trail Drive Houston, TX 77070 $205,000 1,968 sq. ft. 6,534 sq. ft. $104
2018-05-25 Single Family Traditional 2110 Laurel Land Lane Houston, TX 77014 $150,000 2,185 sq. ft. 7,405 sq. ft. $69
2018-05-25 Single Family Traditional 1129 Sherwood Run Houston, TX 77043 $359,900 2,384 sq. ft. 2,614 sq. ft. $151
2018-05-25 Single Family French; Traditional 12019 Fawnview Drive Houston, TX 77070 $294,500 3,171 sq. ft. 9,583 sq. ft. $93
2018-05-25 Single Family Traditional 4762 Whispering Falls Drive Houston, TX 77084 $189,900 1,948 sq. ft. 6,970 sq. ft. $97
2018-05-25 Single Family Traditional 6003 Saratoga Springs Lane Houston, TX 77041 $679,900 4,228 sq. ft. 10,890 sq. ft. $161
2018-05-25 Single Family Traditional 11810 Primwood Drive Houston, TX 77070 $535,000 4,882 sq. ft. 12,197 sq. ft. $110
2018-05-25 Single Family Traditional 8502 Snowbank Drive Houston, TX 77064 $157,000 1,633 sq. ft. 6,098 sq. ft. $96
2018-05-25 Single Family Traditional 8614 Lake Crystal Drive Houston, TX 77095 $189,900 1,713 sq. ft. 7,405 sq. ft. $111
2018-05-25 Single Family Traditional 17010 Sky Blue Place Houston, TX 77095 $135,000 1,450 sq. ft. 6,098 sq. ft. $93
2018-05-25 Single Family Traditional 871 Sara Rose Street Houston, TX 77018 $349,900 1,256 sq. ft. 6,098 sq. ft. $279
2018-05-25 Single Family Ranch; Traditional 801 Martin Street Houston, TX 77018 $274,000 1,370 sq. ft. 10,019 sq. ft. $200
2018-05-25 Single Family Traditional 7307 Stone Valley Drive Houston, TX 77095 $254,900 2,752 sq. ft. 9,148 sq. ft. $93
2018-05-25 Single Family Traditional 10527 Pine Landing Drive Houston, TX 77088 $186,900 1,557 sq. ft. $120
2018-05-25 Single Family Traditional 843 43rd Street Houston, TX 77018 $459,900 1,715 sq. ft. 13,068 sq. ft. $268
2018-05-25 Single Family Traditional 16106 Cutten Road Houston, TX 77070 $225,000 2,604 sq. ft. 7,405 sq. ft. $86
2018-05-25 Single Family Traditional 10642 Pine Landing Drive Houston, TX 77088 $175,900 1,415 sq. ft. $124
2018-05-25 Single Family Traditional 2407 Fallen Pine Drive Houston, TX 77088 $174,900 1,415 sq. ft. $124
2018-05-25 Single Family Traditional 2423 Fallen Pine Drive Houston, TX 77088 $173,900 1,415 sq. ft. $123
2018-05-25 Single Family Traditional 19627 Spanish Needle Houston, TX 77084 $189,999 1,636 sq. ft. 6,970 sq. ft. $116
2018-05-25 Single Family Traditional 9626 Pine Lake Drive Houston, TX 77055 $399,000 1,379 sq. ft. 8,276 sq. ft. $289
2018-05-25 Single Family Traditional 1850 Commons Meadow Lane Houston, TX 77080 $324,495 1,930 sq. ft. $168
2018-05-25 Single Family Traditional 1806 Wakefield Drive Houston, TX 77018 $424,999 1,756 sq. ft. 7,841 sq. ft. $242
2018-05-25 Single Family Contemporary/Modern; Traditional 11806 Cypresswood Drive Houston, TX 77070 $243,900 3,032 sq. ft. 10,019 sq. ft. $80
2018-05-25 Single Family Traditional 13646 Clarks Fork Drive Houston, TX 77086 $175,000 1,980 sq. ft. 5,227 sq. ft. $88
2018-05-25 Single Family Traditional 318 Champions Colony Iii Houston, TX 77069 $185,000 2,033 sq. ft. 4,792 sq. ft. $91
2018-05-25 Single Family Split Level 15806 Maple Manor Drive Houston, TX 77095 $195,000 2,136 sq. ft. 7,841 sq. ft. $91
2018-05-25 Single Family Traditional 6303 Sutton Meadows Drive Houston, TX 77086 $151,500 1,395 sq. ft. 6,970 sq. ft. $109
2018-05-25 Single Family Traditional 10915 Fawnview Drive Houston, TX 77070 $237,500 3,365 sq. ft. 9,583 sq. ft. $71
2018-05-25 Single Family Traditional 2927 Ridge Scene Way Houston, TX 77084 $205,000 2,362 sq. ft. 5,227 sq. ft. $87
2018-05-25 Single Family Ranch 10338 Summerhill Drive Houston, TX 77070 $180,000 1,894 sq. ft. 8,276 sq. ft. $95
2018-05-25 Single Family Traditional 1314 Hawks Nest Drive Houston, TX 77067 $192,900 3,548 sq. ft. 5,663 sq. ft. $54
2018-05-25 Single Family Traditional 11102 Grassyglen Drive Houston, TX 77064 $144,900 1,128 sq. ft. 6,534 sq. ft. $128
2018-05-25 Single Family Contemporary/Modern 12045 Champion Forest Drive Houston, TX 77066 $144,900 1,777 sq. ft. 7,841 sq. ft. $82
2018-05-25 Single Family Traditional 1242 Turnbury Oak Street Houston, TX 77055 $799,000 3,179 sq. ft. 6,098 sq. ft. $251
2018-05-25 Single Family Traditional 14206 Persimmon Woods Drive Houston, TX 77068 $209,995 2,646 sq. ft. $79
2018-05-25 Single Family Traditional 5111 Dauntless Drive Houston, TX 77066 $197,990 2,382 sq. ft. $83
2018-05-25 Single Family Contemporary/Modern 12023 Champion Forest Drive Houston, TX 77066 $159,900 2,066 sq. ft. 4,356 sq. ft. $77
2018-05-25 Single Family Traditional 503 32nd Street Houston, TX 77018 $575,000 1,757 sq. ft. 14,375 sq. ft. $327
2018-05-25 Single Family Traditional 4139 False Cypress Lane Houston, TX 77068 $224,995 2,372 sq. ft. $95
2018-05-25 Single Family Traditional 4411 Kacee Drive Houston, TX 77084 $150,000 1,488 sq. ft. 5,663 sq. ft. $101
2018-05-25 Single Family Traditional 515 30th Street Houston, TX 77018 $455,500 1,957 sq. ft. 12,632 sq. ft. $233
2018-05-25 Single Family Contemporary/Modern 318 Yale Oaks Lane Houston, TX 77091 $319,900 1,802 sq. ft. 3,920 sq. ft. $178
2018-05-25 Single Family Contemporary/Modern 326 Yale Oaks Lane Houston, TX 77091 $339,900 2,013 sq. ft. 3,920 sq. ft. $169
2018-05-25 Single Family Traditional 14810 Forest Lodge Drive Houston, TX 77070 $194,000 1,670 sq. ft. 8,276 sq. ft. $116
2018-05-25 Single Family Traditional 9119 Montgomery Road Houston, TX 77088 $135,000 1,220 sq. ft. 15,682 sq. ft. $111
2018-05-25 Single Family Traditional 11635 Cypresswood Drive Houston, TX 77070 $319,900 3,102 sq. ft. 9,148 sq. ft. $103
2018-05-25 Single Family Contemporary/Modern 306 Yale Oaks Lane Houston, TX 77091 $319,900 1,802 sq. ft. 3,485 sq. ft. $178
2018-05-25 Single Family Traditional 15810 Fern Basin Drive Houston, TX 77084 $240,000 2,964 sq. ft. 7,841 sq. ft. $81
2018-05-25 Single Family Traditional 7923 Ivy Trail Court Houston, TX 77095 $260,000 2,565 sq. ft. 7,841 sq. ft. $101
2018-05-25 Single Family Ranch 4806 Ella Boulevard Houston, TX 77018 $275,000 1,300 sq. ft. 7,841 sq. ft. $212
2018-05-25 Single Family Traditional 10418 Dyer Glen Houston, TX 77070 $248,000 2,316 sq. ft. 7,405 sq. ft. $107
2018-05-24 Single Family Traditional 5322 Ridgewood Reef Houston, TX 77041 $579,000 4,750 sq. ft. 9,583 sq. ft. $122
2018-05-24 Single Family French; Traditional 1103 Caspian Lane Houston, TX 77090 $259,900 3,516 sq. ft. 12,197 sq. ft. $74
2018-05-24 Single Family Traditional 2907 Benne Court Houston, TX 77014 $184,900 2,418 sq. ft. 7,841 sq. ft. $76
2018-05-24 Single Family Ranch 1303 Twinbrooke Drive Houston, TX 77088 $135,000 1,338 sq. ft. 7,405 sq. ft. $101
2018-05-24 Single Family Traditional 10818 Berry Tree Drive Houston, TX 77064 $164,900 1,452 sq. ft. 4,792 sq. ft. $114
2018-05-24 Single Family Traditional 6606 Loch Bruceray Drive Houston, TX 77084 $139,000 1,344 sq. ft. 9,583 sq. ft. $103
2018-05-24 Single Family Traditional 11507 Aucuba Lane Houston, TX 77095 $375,000 4,161 sq. ft. 8,712 sq. ft. $90
2018-05-24 Single Family Traditional 2422 Micliff Boulevard Houston, TX 77068 $180,000 2,694 sq. ft. 20,473 sq. ft. $67
2018-05-24 Single Family Traditional 6903 Tournament Drive Houston, TX 77069 $214,900 2,094 sq. ft. 3,485 sq. ft. $103
2018-05-24 Single Family Traditional 1337 Overhill Street Houston, TX 77018 $819,000 3,338 sq. ft. 7,405 sq. ft. $245
2018-05-24 Single Family Traditional 1915 Big Horn Drive Houston, TX 77090 $199,900 2,736 sq. ft. 9,148 sq. ft. $73
2018-05-24 Single Family Contemporary/Modern 4806 Pecan Arbor Ln Lane Houston, TX 77069 $278,506 2,812 sq. ft. $99
2018-05-24 Single Family Traditional 16031 Lausanne Drive Houston, TX 77070 $233,800 2,328 sq. ft. 6,098 sq. ft. $100
2018-05-24 Single Family Traditional 15631 Pine Mountain Drive Houston, TX 77084 $90,000 2,402 sq. ft. 11,761 sq. ft. $37
2018-05-24 Single Family Traditional 1467 Sherwood Park Circle Houston, TX 77043 $399,000 2,521 sq. ft. 4,356 sq. ft. $158
2018-05-24 Single Family Contemporary/Modern 14538 Bending Maple Dr Lane Houston, TX 77069 $273,410 2,812 sq. ft. $97
2018-05-24 Single Family Traditional 8710 Pleasantbrook Drive Houston, TX 77095 $188,000 1,768 sq. ft. 6,534 sq. ft. $106
2018-05-24 Single Family Traditional 2407 Elmgate Drive Houston, TX 77080 $379,000 2,020 sq. ft. 7,841 sq. ft. $188
2018-05-24 Single Family Traditional 8103 Coolshire Lane Houston, TX 77070 $207,400 2,874 sq. ft. 9,148 sq. ft. $72
2018-05-24 Single Family Traditional 7935 Lumber Jack Drive Houston, TX 77040 $147,500 1,379 sq. ft. 14,375 sq. ft. $107
2018-05-24 Single Family Traditional 8303 Waterbury Drive Houston, TX 77055 $1,100,000 3,998 sq. ft. 10,019 sq. ft. $275
2018-05-24 Single Family Traditional 4238 Bayglen Court Houston, TX 77068 $220,000 2,788 sq. ft. 12,197 sq. ft. $79
2018-05-24 Single Family Traditional 4627 Bagpipe Lane Houston, TX 77084 $155,000 1,743 sq. ft. 6,970 sq. ft. $89
2018-05-24 Single Family Traditional 1904 Hollister Spruce Lane Houston, TX 77080 $303,700 1,541 sq. ft. $197
2018-05-24 Single Family Traditional 1908 Hollister Spruce Lane Houston, TX 77080 $303,700 1,541 sq. ft. $197
2018-05-24 Single Family Traditional 1906 Hollister Spruce Lane Houston, TX 77080 $299,900 1,541 sq. ft. $195
2018-05-24 Single Family Other Style; Traditional 4014 Black Locust Drive Houston, TX 77088 $175,000 3,500 sq. ft. 5,663 sq. ft. $50
2018-05-24 Single Family Traditional 918 Bethlehem Street Houston, TX 77018 $589,000 2,161 sq. ft. 8,712 sq. ft. $273
2018-05-24 Single Family Traditional 1902 Hollister Spruce Lane Houston, TX 77080 $309,900 1,541 sq. ft. $201
2018-05-24 Single Family Traditional 1910 Hollister Spruce Lane Houston, TX 77080 $309,900 1,541 sq. ft. $201
2018-05-24 Single Family Traditional 15106 Howland Street Houston, TX 77084 $179,000 1,964 sq. ft. 6,098 sq. ft. $91
2018-05-24 Single Family Colonial 8202 Dorrcrest Lane Houston, TX 77070 $295,000 3,226 sq. ft. 11,326 sq. ft. $91
2018-05-24 Single Family Traditional 12914 Briarpine Court Houston, TX 77041 $236,900 2,191 sq. ft. 6,534 sq. ft. $108
2018-05-24 Single Family Traditional 6522 Rolla Street Houston, TX 77055 $1,129,000 4,114 sq. ft. 8,276 sq. ft. $274
2018-05-24 Single Family French; Traditional 5318 Mindy Park Court Houston, TX 77069 $419,000 4,000 sq. ft. 10,454 sq. ft. $105
2018-05-24 Single Family Traditional 12827 Dove Brook Court Houston, TX 77041 $224,900 2,236 sq. ft. 6,098 sq. ft. $101
2018-05-24 Single Family Contemporary/Modern 2706 Thompson Creek Drive Houston, TX 77067 $176,000 2,736 sq. ft. 6,098 sq. ft. $64
2018-05-24 Single Family Traditional 4006 Renwood Forest Houston, TX 77084 $199,900 1,703 sq. ft. 6,098 sq. ft. $117
2018-05-24 Single Family Spanish; Traditional 5202 Pinewilde Drive Houston, TX 77066 $239,999 2,882 sq. ft. 9,583 sq. ft. $83
2018-05-24 Single Family Ranch 9521 Kerrwood Lane Houston, TX 77080 $230,000 1,408 sq. ft. 6,534 sq. ft. $163
2018-05-24 Single Family Traditional 2916 Becca Lane Houston, TX 77092 $385,000 2,092 sq. ft. 3,485 sq. ft. $184
2018-05-24 Single Family Traditional 10102 Metronome Drive Houston, TX 77080 $249,000 2,045 sq. ft. 4,356 sq. ft. $122
2018-05-24 Single Family Traditional 10819 Laneview Drive Houston, TX 77070 $245,000 2,572 sq. ft. 11,326 sq. ft. $95
2018-05-24 Single Family Traditional 5706 Brownstone Ridge Lane Houston, TX 77084 $225,000 2,125 sq. ft. 7,405 sq. ft. $106
2018-05-24 Single Family Traditional 10906 Pine Desert Lane Houston, TX 77088 $88,000 1,400 sq. ft. 7,841 sq. ft. $63
2018-05-24 Single Family Traditional 10702 Idlebrook Drive Houston, TX 77070 $275,000 2,848 sq. ft. 11,326 sq. ft. $97
2018-05-24 Single Family Traditional 16322 Hollow Wood Drive Houston, TX 77090 $125,000 1,276 sq. ft. 6,534 sq. ft. $98
2018-05-24 Single Family Traditional 6618 Greenvale Lane Houston, TX 77066 $158,000 1,734 sq. ft. 7,405 sq. ft. $91
2018-05-24 Single Family Traditional 8606 Ashland Way Houston, TX 77055 $610,000 3,129 sq. ft. 2,614 sq. ft. $195
2018-05-24 Single Family Traditional 1118 Traweek Street Houston, TX 77055 $1,500,000 4,433 sq. ft. 10,890 sq. ft. $338
2018-05-24 Single Family Traditional 5931 Foresthaven Drive Houston, TX 77066 $235,000 2,824 sq. ft. 9,583 sq. ft. $83
2018-05-24 Single Family Traditional 10005 Hazelhurst Drive Houston, TX 77080 $239,000 1,593 sq. ft. 10,890 sq. ft. $150
2018-05-24 Single Family Traditional 12619 Paloma Park Lane Houston, TX 77041 $550,000 3,687 sq. ft. 13,939 sq. ft. $149
2018-05-24 Single Family Traditional 1315 York Creek Drive Houston, TX 77090 $189,999 2,313 sq. ft. 6,098 sq. ft. $82
2018-05-24 Single Family Contemporary/Modern 6135 Gallant Forest Drive Houston, TX 77088 $199,900 2,366 sq. ft. 9,583 sq. ft. $84
2018-05-23 Single Family Traditional 9911 Hornpipe Lane Houston, TX 77080 $379,000 2,530 sq. ft. 9,148 sq. ft. $150
2018-05-23 Single Family Traditional 16410 Wellers Way Houston, TX 77095 $199,900 1,899 sq. ft. 6,970 sq. ft. $105
2018-05-23 Single Family Traditional 18131 Lake Bend Drive Houston, TX 77084 $180,000 1,788 sq. ft. 8,712 sq. ft. $101
2018-05-23 Single Family Traditional 5643 Fairview Forest Drive Houston, TX 77088 $199,900 2,320 sq. ft. 7,841 sq. ft. $86
2018-05-23 Single Family English 4312 Ascot Lane Houston, TX 77092 $549,900 2,490 sq. ft. 6,534 sq. ft. $221
2018-05-23 Single Family French; Traditional 841 Dunleigh Meadows Lane Houston, TX 77055 $629,900 2,528 sq. ft. 1,742 sq. ft. $249
2018-05-23 Single Family Traditional 16114 Ronaldsay Mews Street Houston, TX 77095 $249,999 2,433 sq. ft. 6,098 sq. ft. $103
2018-05-23 Single Family Contemporary/Modern 7503 Muirwood Lane Houston, TX 77041 $205,000 2,358 sq. ft. 8,276 sq. ft. $87
2018-05-23 Single Family Traditional 10323 Brickyard Court Houston, TX 77041 $189,999 1,676 sq. ft. 5,227 sq. ft. $113
2018-05-23 Single Family Traditional 10031 Haddington Drive Houston, TX 77080 $385,000 2,600 sq. ft. 9,583 sq. ft. $148
2018-05-23 Single Family Traditional 18143 Holly Green Drive Houston, TX 77084 $172,000 1,788 sq. ft. 6,970 sq. ft. $96
2018-05-23 Single Family Traditional 10802 Perry Road Houston, TX 77064 $179,000 2,303 sq. ft. 8,712 sq. ft. $78
2018-05-23 Single Family Traditional 9212 Vogue Lane Houston, TX 77080 $470,000 2,579 sq. ft. 20,473 sq. ft. $182
2018-05-23 Single Family Traditional 7226 Sunlight Lane Houston, TX 77095 $144,480 1,602 sq. ft. 6,534 sq. ft. $90
2018-05-23 Single Family Traditional 15911 Ridge Park Drive Houston, TX 77095 $269,000 2,946 sq. ft. 10,019 sq. ft. $91
2018-05-23 Single Family Traditional 10415 Millridge North Drive Houston, TX 77070 $265,000 2,650 sq. ft. 7,405 sq. ft. $100
2018-05-23 Single Family Traditional 8406 Laurel Trace Houston, TX 77040 $298,000 2,466 sq. ft. 14,375 sq. ft. $121
2018-05-23 Single Family Traditional 9623 Therrell Drive Houston, TX 77064 $247,000 1,878 sq. ft. 6,534 sq. ft. $132
2018-05-23 Single Family French 1415 Wakefield Dr Drive Houston, TX 77018 $835,000 3,650 sq. ft. $229
2018-05-23 Single Family Traditional 12215 Rocky Lake Court Houston, TX 77070 $310,000 3,012 sq. ft. 8,276 sq. ft. $103
2018-05-23 Single Family Traditional 4931 Shadowdale Drive Houston, TX 77041 $249,900 2,462 sq. ft. 6,534 sq. ft. $102
2018-05-23 Single Family Traditional 5403 Sheraton Oaks Drive Houston, TX 77091 $199,000 2,143 sq. ft. 8,712 sq. ft. $93
2018-05-23 Single Family Traditional 3011 Carlford Circle Houston, TX 77018 $315,000 1,550 sq. ft. 12,632 sq. ft. $203
2018-05-23 Single Family Traditional 5410 Theall Road Houston, TX 77066 $329,900 5,104 sq. ft. 16,117 sq. ft. $65
2018-05-23 Single Family Traditional 4606 Viking Drive Houston, TX 77092 $699,000 3,054 sq. ft. 7,405 sq. ft. $229
2018-05-23 Single Family Contemporary/Modern 4339 Lake Cypress Circle Houston, TX 77068 $203,500 2,012 sq. ft. 6,970 sq. ft. $101
2018-05-23 Single Family Traditional 11710 Fawnview Drive Houston, TX 77070 $239,900 2,736 sq. ft. 9,583 sq. ft. $88
2018-05-23 Single Family Traditional 5322 Windsong Trail Houston, TX 77084 $170,000 1,696 sq. ft. 6,970 sq. ft. $100
2018-05-23 Single Family Traditional 6629 Wharton Street Houston, TX 77055 $704,000 3,504 sq. ft. 8,712 sq. ft. $201
2018-05-23 Single Family Traditional 10530 Laneview Drive Houston, TX 77070 $280,000 2,932 sq. ft. 9,583 sq. ft. $96
2018-05-23 Single Family Traditional 10907 Fawnview Drive Houston, TX 77070 $235,000 2,779 sq. ft. 9,583 sq. ft. $85
2018-05-23 Single Family Traditional 13523 Clayton Hill Drive Houston, TX 77041 $169,000 1,252 sq. ft. 6,534 sq. ft. $135
2018-05-23 Single Family Contemporary/Modern 887 Victory Drive Houston, TX 77088 $134,999 1,200 sq. ft. 6,970 sq. ft. $112
2018-05-23 Single Family Traditional 2306 Carleen Road Houston, TX 77018 $475,000 2,115 sq. ft. 6,970 sq. ft. $225
2018-05-23 Single Family Contemporary/Modern 6106 Clarkson Houston, TX 77055 $414,900 2,152 sq. ft. $193
2018-05-23 Single Family Other Style; Traditional 1650 Viking Drive Houston, TX 77018 $1,190,000 4,432 sq. ft. 10,019 sq. ft. $268
2018-05-23 Single Family Traditional 5903 Painted Trail Drive Houston, TX 77084 $204,900 2,299 sq. ft. 8,276 sq. ft. $89
2018-05-23 Single Family English 10903 Grove Tree Lane Houston, TX 77043 $450,000 2,523 sq. ft. 2,178 sq. ft. $178
2018-05-23 Single Family Traditional 10243 Mills Run Drive Houston, TX 77070 $225,000 2,319 sq. ft. 5,227 sq. ft. $97
2018-05-23 Single Family Traditional 5915 Central Falls Drive Houston, TX 77041 $194,900 1,993 sq. ft. 6,534 sq. ft. $98
2018-05-23 Single Family Ranch 17311 Danbury Bridge Drive Houston, TX 77095 $265,000 2,470 sq. ft. 6,970 sq. ft. $107
2018-05-22 Single Family Traditional 871 Fisher Street Houston, TX 77018 $599,000 3,097 sq. ft. 5,227 sq. ft. $193
2018-05-22 Single Family Traditional 1735 Gingerleaf Lane Houston, TX 77055 $325,000 1,307 sq. ft. 4,356 sq. ft. $249
2018-05-22 Single Family Contemporary/Modern 8402 Oak Leaf Point Houston, TX 77055 $443,390 2,163 sq. ft. $205
2018-05-22 Single Family Other Style 4815 Marburg Court Houston, TX 77066 $170,500 1,872 sq. ft. 6,534 sq. ft. $91
2018-05-22 Single Family Contemporary/Modern 1702 Oak Leaf Point Houston, TX 77055 $446,959 2,127 sq. ft. $210
2018-05-22 Single Family Traditional 8707 Throckmorton Lane Houston, TX 77064 $360,000 2,685 sq. ft. 10,890 sq. ft. $134
2018-05-22 Single Family Contemporary/Modern 8914 Crazy Horse Trail Houston, TX 77064 $259,900 2,622 sq. ft. 9,148 sq. ft. $99
2018-05-22 Single Family Traditional 5610 Heather Run Houston, TX 77041 $400,000 2,712 sq. ft. 8,712 sq. ft. $147
2018-05-22 Single Family Traditional 12710 Copeland Drive Houston, TX 77070 $249,000 2,334 sq. ft. 7,841 sq. ft. $107
2018-05-22 Single Family English 802 Romaine Lane Houston, TX 77090 $194,000 3,010 sq. ft. 10,019 sq. ft. $64
2018-05-22 Single Family Traditional 10310 Cliff Haven Court Houston, TX 77095 $209,000 1,802 sq. ft. 7,841 sq. ft. $116
2018-05-22 Single Family Contemporary/Modern 765 Boeneman Drive Houston, TX 77091 $160,000 962 sq. ft. 24,829 sq. ft. $166
2018-05-22 Single Family Traditional 527 33rd Street Houston, TX 77018 $799,000 3,021 sq. ft. 13,504 sq. ft. $264
2018-05-22 Single Family Traditional 5422 Old Lodge Drive Houston, TX 77066 $259,900 3,189 sq. ft. 11,326 sq. ft. $82
2018-05-22 Single Family Ranch; Traditional 2007 Nina Lee Lane Houston, TX 77018 $599,000 1,992 sq. ft. 7,405 sq. ft. $301
2018-05-22 Single Family Ranch 6014 Golden Forest Drive Houston, TX 77092 $269,900 1,752 sq. ft. 7,405 sq. ft. $154
2018-05-22 Single Family Traditional 7282 Shady Corners Lane Houston, TX 77040 $129,000 1,459 sq. ft. 6,970 sq. ft. $88
2018-05-22 Single Family Contemporary/Modern 14618 Bending Maple Dr Houston, TX 77069 $276,724 2,569 sq. ft. $108
2018-05-22 Single Family Traditional 3502 Tierwood Court Houston, TX 77068 $244,500 2,750 sq. ft. 8,712 sq. ft. $89
2018-05-22 Single Family Traditional 4403 Windmill Run Drive Houston, TX 77069 $256,670 2,606 sq. ft. 4,792 sq. ft. $98
2018-05-22 Single Family Contemporary/Modern 14722 Bending Maple Dr Houston, TX 77069 $277,452 2,569 sq. ft. $108
2018-05-22 Single Family Traditional 12403 Wright Oaks Drive Houston, TX 77014 $182,500 1,731 sq. ft. 6,098 sq. ft. $105
2018-05-22 Single Family Mediterranean 7618 Edgeway Houston, TX 77055 $1,449,000 5,538 sq. ft. 11,326 sq. ft. $262
2018-05-22 Single Family Traditional 1521 Glourie Drive Houston, TX 77055 $1,550,000 4,509 sq. ft. 9,148 sq. ft. $344
2018-05-22 Single Family English; Traditional 15507 T C Jester Boulevard Houston, TX 77068 $229,990 3,014 sq. ft. 10,454 sq. ft. $76
2018-05-22 Single Family Traditional 15919 Tumbling Rapids Drive Houston, TX 77084 $185,000 1,886 sq. ft. 8,276 sq. ft. $98
2018-05-22 Single Family Traditional 5615 Haven Point Drive Houston, TX 77084 $189,000 2,289 sq. ft. 6,970 sq. ft. $83
2018-05-22 Single Family Traditional 18503 Gardens End Lane Houston, TX 77084 $295,604 2,831 sq. ft. $104
2018-05-22 Single Family Traditional 19618 Heritage Elm Court Houston, TX 77084 $199,900 2,411 sq. ft. 5,663 sq. ft. $83
2018-05-22 Single Family Other Style 6629 Queensclub Drive Houston, TX 77069 $1,450 1,335 sq. ft. 3,485 sq. ft. $1
2018-05-22 Single Family Contemporary/Modern 4638 Hickory Downs Drive Houston, TX 77084 $194,900 2,477 sq. ft. 7,405 sq. ft. $79
2018-05-22 Single Family Traditional 7718 Springville Drive Houston, TX 77095 $174,900 1,412 sq. ft. 5,227 sq. ft. $124
2018-05-22 Single Family Traditional 1615 Ruellen Lane Houston, TX 77038 $174,900 2,694 sq. ft. 6,534 sq. ft. $65
2018-05-22 Single Family Traditional 6919 Raton Street Houston, TX 77055 $264,000 1,066 sq. ft. 7,405 sq. ft. $248
2018-05-22 Single Family Traditional 1909 Barrel Oak Houston, TX 77080 $359,990 2,061 sq. ft. 3,049 sq. ft. $175
2018-05-22 Single Family Traditional 18322 Spruce Tree Line Trail Houston, TX 77084 $264,470 2,566 sq. ft. $103
2018-05-22 Single Family Traditional 14003 Stardust Lane Houston, TX 77041 $269,000 3,060 sq. ft. 6,534 sq. ft. $88
2018-05-22 Single Family Colonial 5806 Vestavia Drive Houston, TX 77069 $298,500 3,144 sq. ft. 10,890 sq. ft. $95
2018-05-22 Single Family Traditional 3519 Barkers Run Drive Houston, TX 77084 $257,180 2,603 sq. ft. $99
2018-05-22 Single Family Traditional 15206 Pecan Landing Drive Houston, TX 77090 $186,646 1,700 sq. ft. $110
2018-05-22 Single Family Traditional 4402 Champions Landing Drive Houston, TX 77069 $219,450 2,033 sq. ft. $108
2018-05-22 Single Family Traditional 4430 Champions Landing Drive Houston, TX 77069 $194,990 1,516 sq. ft. $129
2018-05-22 Single Family Traditional 1102 Yucca Mountain Drive Houston, TX 77090 $236,160 2,352 sq. ft. $100
2018-05-22 Single Family Traditional 4414 Champions Landing Drive Houston, TX 77069 $184,200 1,206 sq. ft. $153
2018-05-22 Single Family Ranch 10215 Eddystone Drive Houston, TX 77043 $385,000 2,112 sq. ft. 8,276 sq. ft. $182
2018-05-22 Single Family Traditional 5736 Santa Fe Springs Drive Houston, TX 77041 $480,000 3,106 sq. ft. 11,761 sq. ft. $155
2018-05-22 Single Family Traditional 9311 Presidio Park Drive Houston, TX 77080 $319,990 1,834 sq. ft. $174
2018-05-22 Single Family Traditional 9312 Presidio Park Drive Houston, TX 77080 $316,160 1,490 sq. ft. $212
2018-05-22 Single Family Traditional 9310 Presidio Park Drive Houston, TX 77080 $353,180 2,258 sq. ft. $156
2018-05-22 Single Family Traditional 885 Green Meadow Lane Houston, TX 77091 $135,000 1,080 sq. ft. 3,920 sq. ft. $125
2018-05-22 Single Family Traditional 12811 Ashton Lake Lane Houston, TX 77041 $307,000 3,250 sq. ft. 7,841 sq. ft. $94
2018-05-22 Single Family Colonial 5104 Pinemont Place Houston, TX 77092 $265,727 1,336 sq. ft. 2,178 sq. ft. $199
2018-05-21 Single Family Traditional 10411 Rockcrest Road Houston, TX 77041 $199,900 1,416 sq. ft. 6,970 sq. ft. $141
2018-05-21 Single Family Mediterranean 9760 Westview Drive Houston, TX 77055 $1,100,000 6,143 sq. ft. 10,454 sq. ft. $179
2018-05-21 Single Family Traditional 12618 Brentleywood Lane Houston, TX 77070 $198,900 1,999 sq. ft. 6,098 sq. ft. $100
2018-05-21 Single Family Contemporary/Modern 13402 Park Centre Court Houston, TX 77069 $393,000 2,580 sq. ft. 12,632 sq. ft. $152
2018-05-21 Single Family Traditional 12215 Drifting Pine Ct Houston, TX 77066 $177,000 1,869 sq. ft. 6,970 sq. ft. $95
2018-05-21 Single Family Traditional 12807 Village Way Drive Houston, TX 77041 $199,000 1,837 sq. ft. 6,098 sq. ft. $108
2018-05-21 Single Family Traditional 6518 Clawson Street Houston, TX 77055 $685,000 2,734 sq. ft. 8,276 sq. ft. $251
2018-05-21 Single Family Contemporary/Modern 1750 Bonnyton Lane Houston, TX 77014 $199,900 2,500 sq. ft. 5,227 sq. ft. $80
2018-05-21 Single Family Contemporary/Modern 9203 Theysen Drive Houston, TX 77080 $429,000 2,221 sq. ft. 10,890 sq. ft. $193
2018-05-21 Single Family Traditional 6601 Wharton Street Houston, TX 77055 $270,000 798 sq. ft. 6,970 sq. ft. $338
2018-05-21 Single Family French; Traditional 8213 Cabernet Lane Houston, TX 77055 $598,000 3,019 sq. ft. 2,614 sq. ft. $198
2018-05-21 Single Family Traditional 1219 Bethlehem Street Houston, TX 77018 $465,000 2,027 sq. ft. 8,712 sq. ft. $229
2018-05-21 Single Family Contemporary/Modern 2209 Padron Place Houston, TX 77091 $383,000 2,777 sq. ft. 3,485 sq. ft. $138
2018-05-21 Single Family Contemporary/Modern 5519 Robusto Place Houston, TX 77091 $335,500 2,190 sq. ft. $153
2018-05-21 Single Family Traditional 1411 Sweet Grass Trail Houston, TX 77090 $225,000 3,042 sq. ft. 9,583 sq. ft. $74
2018-05-21 Single Family Contemporary/Modern 9231 Burford Lane Houston, TX 77088 $124,900 1,776 sq. ft. 6,534 sq. ft. $70
2018-05-21 Single Family Traditional 8618 Westview Drive Houston, TX 77055 $1,249,000 4,753 sq. ft. 15,246 sq. ft. $263
2018-05-21 Single Family Traditional 10603 Enclave Shadows Court Houston, TX 77043 $425,000 2,800 sq. ft. 2,178 sq. ft. $152
2018-05-21 Single Family Traditional 4403 Mountwood Street Houston, TX 77018 $414,900 2,387 sq. ft. 10,890 sq. ft. $174
2018-05-21 Single Family Traditional 1237 Du Barry Lane Houston, TX 77018 $359,900 1,357 sq. ft. 8,276 sq. ft. $265
2018-05-21 Single Family Traditional 14423 Brentshire Ln Houston, TX 77069 $315,000 3,247 sq. ft. 19,602 sq. ft. $97
2018-05-21 Single Family Traditional 11243 Velvet Grass Lane Houston, TX 77095 $269,000 2,891 sq. ft. 7,841 sq. ft. $93
2018-05-21 Single Family Traditional 6814 Carver Road Houston, TX 77091 $208,921 1,642 sq. ft. 10,019 sq. ft. $127
2018-05-21 Single Family Traditional 1606 Du Barry Lane Houston, TX 77018 $849,900 3,500 sq. ft. 6,534 sq. ft. $243
2018-05-21 Single Family Traditional 8526 Scenic Green Dr Houston, TX 77088 $163,900
2018-05-21 Single Family Traditional 5515 Hardwood Forest Drive Houston, TX 77088 $169,900 2,335 sq. ft. 6,970 sq. ft. $73
2018-05-21 Single Family English 7510 Creek Glen Drive Houston, TX 77095 $279,000 2,948 sq. ft. 10,454 sq. ft. $95
2018-05-21 Single Family Traditional 5410 De Milo Drive Houston, TX 77092 $315,000 1,565 sq. ft. 6,970 sq. ft. $201
2018-05-21 Single Family Traditional 9206 Angelas Meadow Lane Houston, TX 77095 $259,000 2,432 sq. ft. 8,276 sq. ft. $106
2018-05-21 Single Family Traditional 6222 Arcadian Shores Drive Houston, TX 77084 $195,000 1,824 sq. ft. 7,405 sq. ft. $107
2018-05-21 Single Family Traditional 4018 Windrift Drive Houston, TX 77066 $150,000 1,910 sq. ft. 6,970 sq. ft. $79
2018-05-21 Single Family Traditional 18746 Wonder Land Way Houston, TX 77084 $200,000 1,660 sq. ft. 6,098 sq. ft. $120
2018-05-21 Single Family Traditional 16002 Cutten Road Houston, TX 77070 $229,000 2,550 sq. ft. 7,405 sq. ft. $90
2018-05-21 Single Family Traditional 5202 Dartmoor Ridge Trail Houston, TX 77066 $184,900 2,167 sq. ft. 3,049 sq. ft. $85
2018-05-21 Single Family Ranch 10210 Eddystone Drive Houston, TX 77043 $320,000 1,550 sq. ft. 10,019 sq. ft. $206
2018-05-21 Single Family Traditional 9814 Darby Mill Lane Houston, TX 77095 $329,990 3,941 sq. ft. 7,841 sq. ft. $84
2018-05-21 Single Family Traditional 15810 Aberdeen Trails Drive Houston, TX 77095 $265,000 2,558 sq. ft. 8,712 sq. ft. $104
2018-05-21 Single Family Traditional 9642 Yearling Circle Houston, TX 77065 $149,500 1,298 sq. ft. 5,663 sq. ft. $115
2018-05-21 Single Family Traditional 1033 Ellington Street Houston, TX 77088 $49,500 768 sq. ft. 9,148 sq. ft. $64
2018-05-21 Single Family Traditional 9218 Olathe Street Houston, TX 77055 $515,000 1,957 sq. ft. 12,197 sq. ft. $263
2018-05-21 Single Family Traditional 12307 Vintage Leaf Circle Houston, TX 77070 $310,000 2,806 sq. ft. 21,780 sq. ft. $110
2018-05-21 Single Family Contemporary/Modern 6414 Wexford Park Drive Houston, TX 77088 $155,000 1,722 sq. ft. 7,841 sq. ft. $90
2018-05-21 Single Family Traditional 15207 Lantern Creek Lane Houston, TX 77068 $234,999 3,170 sq. ft. 8,712 sq. ft. $74
2018-05-21 Single Family Traditional 16414 Salinas Lane Houston, TX 77095 $177,900 1,782 sq. ft. 5,663 sq. ft. $100
2018-05-20 Single Family Traditional 5727 Malcomboro Drive Houston, TX 77041 $235,000 2,380 sq. ft. 6,970 sq. ft. $99
2018-05-20 Single Family Traditional 19539 Maywood Falls Circle Houston, TX 77084 $174,900 2,366 sq. ft. 4,792 sq. ft. $74
2018-05-20 Single Family Traditional 5930 Birchmont Drive Houston, TX 77092 $329,900 1,701 sq. ft. 7,405 sq. ft. $194
2018-05-20 Single Family Traditional 15011 Walters Rd Houston, TX 77068 $182,000 2,018 sq. ft. 8,712 sq. ft. $90
2018-05-20 Single Family Traditional 7742 Covington Drive Houston, TX 77095 $200,000 2,488 sq. ft. 6,098 sq. ft. $80
2018-05-20 Single Family Ranch 1241 Ben Hur Drive Houston, TX 77055 $795,000 2,100 sq. ft. 10,890 sq. ft. $379
2018-05-20 Single Family Traditional 8134 Streamside Drive Houston, TX 77088 $109,900 1,624 sq. ft. 7,841 sq. ft. $68
2018-05-20 Single Family Traditional 16522 Loch Maree Lane Houston, TX 77084 $149,000 1,690 sq. ft. 6,098 sq. ft. $88
2018-05-20 Single Family Traditional 5419 Olympia Fields Lane Houston, TX 77069 $389,900 4,222 sq. ft. 10,454 sq. ft. $92
2018-05-20 Single Family Traditional 9315 Melvin Oaks Drive Houston, TX 77095 $217,000 2,362 sq. ft. 6,970 sq. ft. $92
2018-05-20 Single Family Traditional 3926 Pintan Lane Houston, TX 77014 $150,000 1,088 sq. ft. 4,792 sq. ft. $138
2018-05-20 Single Family Ranch 12019 Canterhurst Way Houston, TX 77065 $168,276 1,516 sq. ft. 6,534 sq. ft. $111
2018-05-20 Single Family Traditional 1018 Progreso Drive Houston, TX 77038 $118,500 1,136 sq. ft. 6,534 sq. ft. $104
2018-05-20 Single Family Traditional 8743 Copperbrook Drive Houston, TX 77095 $239,900 2,392 sq. ft. 6,534 sq. ft. $100
2018-05-19 Single Family Traditional 18010 Hollywell Drive Houston, TX 77084 $210,000 2,335 sq. ft. 9,583 sq. ft. $90
2018-05-19 Single Family English 5419 Spanish Oak Drive Houston, TX 77066 $250,000 3,180 sq. ft. 9,148 sq. ft. $79
2018-05-19 Single Family Traditional 9423 Lure Drive Houston, TX 77065 $244,900 2,256 sq. ft. 9,148 sq. ft. $109
2018-05-19 Single Family Contemporary/Modern 7525 Hezekiah Lane Houston, TX 77088 $182,500 1,629 sq. ft. 7,405 sq. ft. $112
2018-05-19 Single Family Traditional 6525 Wharton Street Houston, TX 77055 $885,000 3,805 sq. ft. 6,970 sq. ft. $233
2018-05-19 Single Family Traditional 9703 Golden Park Lane Houston, TX 77088 $179,900 2,324 sq. ft. 5,227 sq. ft. $77
2018-05-19 Single Family Traditional 1663 Pinot Circle Houston, TX 77055 $785,000 3,037 sq. ft. 3,920 sq. ft. $258
2018-05-19 Single Family Traditional 17054 Carbridge Drive Houston, TX 77084 $150,000 1,674 sq. ft. 4,356 sq. ft. $90
2018-05-19 Single Family Contemporary/Modern 3010 Triway Lane Houston, TX 77043 $529,000 2,336 sq. ft. 8,712 sq. ft. $226
2018-05-19 Single Family Traditional 9310 Cholla Walk Lane Houston, TX 77064 $169,000 1,600 sq. ft. 3,920 sq. ft. $106
2018-05-19 Single Family Traditional 9623 Cannock Chase Drive Houston, TX 77065 $164,900 1,490 sq. ft. 6,098 sq. ft. $111
2018-05-19 Single Family Traditional 5602 Ballina Canyon Lane Houston, TX 77041 $545,000 4,410 sq. ft. 12,632 sq. ft. $124
2018-05-19 Single Family Traditional 5915 Pennworth Lane Houston, TX 77084 $143,500 1,423 sq. ft. 2,614 sq. ft. $101
2018-05-19 Single Family Contemporary/Modern 10518 Moorcreek Drive Houston, TX 77070 $315,000 3,299 sq. ft. 10,454 sq. ft. $95
2018-05-19 Single Family Traditional 11415 Blue Gama Drive Houston, TX 77095 $230,000 2,278 sq. ft. 7,841 sq. ft. $101
2018-05-19 Single Family Traditional 2434 Areba Street Houston, TX 77091 $204,921 1,674 sq. ft. 7,405 sq. ft. $122
2018-05-19 Single Family Contemporary/Modern 12043 Becca Crossing Way Houston, TX 77067 $193,000 2,509 sq. ft. 9,148 sq. ft. $77
2018-05-18 Single Family Traditional 2050 Teague Road Houston, TX 77080 $289,000 2,320 sq. ft. 10,454 sq. ft. $125
2018-05-18 Single Family Traditional 14818 Royal Birkdale Street Houston, TX 77095 $206,900 2,247 sq. ft. 10,890 sq. ft. $92
2018-05-18 Single Family Traditional 18703 Oak Breeze Drive Houston, TX 77084 $200,000 2,251 sq. ft. 8,276 sq. ft. $89
2018-05-18 Single Family Traditional 7707 Smokey Wood Lane Houston, TX 77086 $146,700 1,362 sq. ft. 6,534 sq. ft. $108
2018-05-18 Single Family Traditional 982 42nd Street Houston, TX 77018 $499,895 1,688 sq. ft. 8,712 sq. ft. $296
2018-05-18 Single Family Traditional 16522 Oat Mill Drive Houston, TX 77095 $207,775 2,272 sq. ft. 6,534 sq. ft. $91
2018-05-18 Single Family Traditional 12711 Jasmine Hollow Lane Houston, TX 77041 $329,900 2,833 sq. ft. 6,970 sq. ft. $116
2018-05-18 Single Family Traditional 4506 Shawna Drive Houston, TX 77084 $150,000 1,790 sq. ft. 6,098 sq. ft. $84
2018-05-18 Single Family Traditional 12810 Timberland Trace Houston, TX 77065 $279,000 3,389 sq. ft. 8,276 sq. ft. $82
2018-05-18 Single Family Traditional 1323 Ansbury Drive Houston, TX 77018 $349,900 1,029 sq. ft. 10,019 sq. ft. $340
2018-05-18 Single Family Traditional 10234 Whitebrook Drive Houston, TX 77038 $118,500 1,420 sq. ft. 6,098 sq. ft. $83
2018-05-18 Single Family Traditional 1718 Gardenia Drive Houston, TX 77018 $385,000 1,601 sq. ft. 7,405 sq. ft. $240
2018-05-18 Single Family Traditional 5826 Catherwood Lane Houston, TX 77084 $190,000 2,318 sq. ft. 7,405 sq. ft. $82
2018-05-18 Single Family Traditional 26 Woodsborough Circle Houston, TX 77055 $1,300,000 3,702 sq. ft. 12,632 sq. ft. $351
2018-05-18 Single Family Traditional 10635 Pine Landing Drive Houston, TX 77088 $190,900 1,658 sq. ft. $115
2018-05-18 Single Family Traditional 10634 Pine Landing Drive Houston, TX 77088 $189,900 1,658 sq. ft. $115
2018-05-18 Single Family Traditional 4322 Scone St Houston, TX 77084 $147,500 1,406 sq. ft. 6,970 sq. ft. $105
2018-05-18 Single Family Traditional 9842 Mountain Chestnut Road Houston, TX 77070 $259,995 2,354 sq. ft. $110
2018-05-18 Single Family Traditional 4915 Hidden Nest Court Houston, TX 77084 $260,000 3,215 sq. ft. 6,970 sq. ft. $81
2018-05-18 Single Family Traditional 4914 Nina Lee Lane Houston, TX 77092 $240,000 1,284 sq. ft. 6,534 sq. ft. $187
2018-05-18 Single Family Traditional 13007 Mills Creek Meadow Drive Houston, TX 77070 $239,995 1,585 sq. ft. $151
2018-05-18 Single Family Traditional 14606 Tab Lane Houston, TX 77070 $204,000 2,546 sq. ft. 10,890 sq. ft. $80
2018-05-18 Single Family Traditional 16623 Gaeldom Lane Houston, TX 77084 $155,000 1,536 sq. ft. 6,098 sq. ft. $101
2018-05-18 Single Family Traditional 12615 Aste Lane Houston, TX 77065 $120,000 2,268 sq. ft. 13,939 sq. ft. $53
2018-05-18 Single Family Ranch 4139 Bethel Boulevard Houston, TX 77092 $285,000 1,446 sq. ft. 7,841 sq. ft. $197
2018-05-18 Single Family Traditional 17319 Kiowa River Lane Houston, TX 77095 $244,900 2,680 sq. ft. 7,405 sq. ft. $91
2018-05-18 Single Family Traditional 19315 Coppervine Lane Houston, TX 77084 $185,000 2,310 sq. ft. 4,792 sq. ft. $80
2018-05-18 Single Family Ranch 2056 Johanna Drive Houston, TX 77055 $599,000 1,032 sq. ft. 21,780 sq. ft. $580
2018-05-18 Single Family Traditional 1135 Chantilly Lane Houston, TX 77018 $465,000 1,928 sq. ft. 7,841 sq. ft. $241
2018-05-18 Single Family Traditional 2106 Brimberry Street Houston, TX 77018 $389,000 1,791 sq. ft. 7,405 sq. ft. $217
2018-05-18 Single Family Traditional 6710 Pebble Beach Drive Houston, TX 77069 $300,000 3,366 sq. ft. 9,148 sq. ft. $89
2018-05-18 Single Family Traditional 8326 Clover Gardens Drive Houston, TX 77095 $204,900 2,448 sq. ft. 7,405 sq. ft. $84
2018-05-18 Single Family Traditional 17142 Deaton Mill Drive Houston, TX 77095 $225,000 2,715 sq. ft. 5,663 sq. ft. $83
2018-05-18 Single Family Traditional 5503 Turfwood Lane Houston, TX 77088 $229,000 3,150 sq. ft. 8,276 sq. ft. $73
2018-05-18 Single Family Traditional 1954 Sugar Pine Circle Houston, TX 77090 $150,800 1,940 sq. ft. 3,485 sq. ft. $78
2018-05-18 Single Family Traditional 9302 Golden Meadow Drive Houston, TX 77064 $139,900 1,124 sq. ft. 4,792 sq. ft. $124
2018-05-18 Single Family Traditional 1509 Monarch Oaks Street Houston, TX 77055 $1,599,000 4,525 sq. ft. 14,810 sq. ft. $353
2018-05-18 Single Family Traditional 5322 Mindy Park Court Houston, TX 77069 $435,000 4,260 sq. ft. 11,326 sq. ft. $102
2018-05-18 Single Family Traditional 1050 30th Street Houston, TX 77018 $320,000 1,520 sq. ft. 7,841 sq. ft. $211
2018-05-18 Single Family Traditional 6315 Cherry Run Houston, TX 77084 $180,000 2,496 sq. ft. 8,276 sq. ft. $72
2018-05-18 Single Family Traditional 11711 Dermott Drive Houston, TX 77065 $389,000 3,330 sq. ft. 30,928 sq. ft. $117
2018-05-18 Single Family Traditional 12502 Cherry Creek Bend Lane Houston, TX 77041 $445,000 3,528 sq. ft. 9,148 sq. ft. $126
2018-05-18 Single Family Traditional 1819 Laurel Rose Lane Houston, TX 77014 $173,000 1,731 sq. ft. 6,098 sq. ft. $100
2018-05-18 Single Family Traditional 12135 Cielio Bay Lane Houston, TX 77041 $449,000 3,042 sq. ft. 10,454 sq. ft. $148
2018-05-18 Single Family Traditional 14903 Rosehill Court Houston, TX 77070 $275,900 2,738 sq. ft. 12,197 sq. ft. $101
2018-05-18 Single Family Traditional 7519 Silent Wood Lane Houston, TX 77086 $148,000 1,372 sq. ft. 6,534 sq. ft. $108
2018-05-18 Single Family Traditional 12934 Lake Center Run Court Houston, TX 77041 $789,000 4,650 sq. ft. 16,117 sq. ft. $170
2018-05-18 Single Family Traditional 1711 Reverse Street Houston, TX 77055 $399,000 1,248 sq. ft. 7,405 sq. ft. $320
2018-05-18 Single Family Traditional 17819 Quiet Loch Lane Houston, TX 77084 $319,000 3,419 sq. ft. 8,712 sq. ft. $93
2018-05-18 Single Family Mediterranean; Traditional 7506 Cuadro Lane Houston, TX 77055 $1,465,000 4,248 sq. ft. 5,663 sq. ft. $345
2018-05-18 Single Family Traditional 13515 Sundowner Drive Houston, TX 77041 $599,900 4,693 sq. ft. 19,166 sq. ft. $128
2018-05-18 Single Family Traditional 6731 Silver Shade Drive Houston, TX 77064 $319,900 3,984 sq. ft. 7,841 sq. ft. $80
2018-05-18 Single Family Traditional 11706 Glenway Drive Houston, TX 77070 $249,900 2,613 sq. ft. 9,583 sq. ft. $96
2018-05-17 Single Family Contemporary/Modern; Traditional 7506 Holly Court Estate Houston, TX 77095 $612,000 5,161 sq. ft. 8,712 sq. ft. $119
2018-05-17 Single Family Traditional 18107 Brooknoll Drive Houston, TX 77084 $154,000 1,541 sq. ft. 6,534 sq. ft. $100
2018-05-17 Single Family Traditional 15710 Pagehurst Drive Houston, TX 77084 $104,999 1,784 sq. ft. 6,534 sq. ft. $59
2018-05-17 Single Family Contemporary/Modern; Traditional 1622 Du Barry Lane Houston, TX 77018 $784,495 3,177 sq. ft. 6,534 sq. ft. $247
2018-05-17 Single Family Contemporary/Modern 314 40th Street Houston, TX 77018 $327,800 2,109 sq. ft. 3,049 sq. ft. $155
2018-05-17 Single Family Ranch; Traditional 8407 Pebbledowne Drive Houston, TX 77064 $119,500 1,370 sq. ft. 7,841 sq. ft. $87
2018-05-17 Single Family Traditional 12843 Pantano Drive Houston, TX 77065 $215,000 2,047 sq. ft. 11,326 sq. ft. $105
2018-05-17 Single Family Traditional 10311 Oak Limb Drive Houston, TX 77065 $172,500 1,713 sq. ft. 6,534 sq. ft. $101
2018-05-17 Single Family Traditional 1851 Commons Hill Lane Houston, TX 77080 $310,000 2,080 sq. ft. 2,178 sq. ft. $149
2018-05-17 Single Family Ranch 2414 Bron Holly Drive Houston, TX 77018 $299,000 1,110 sq. ft. 8,276 sq. ft. $269
2018-05-17 Single Family Traditional 13622 Mansfield Point Lane Houston, TX 77070 $255,000 2,552 sq. ft. 9,148 sq. ft. $100
2018-05-17 Single Family Traditional 9906 Cabin Creek Drive Houston, TX 77064 $174,000 1,849 sq. ft. 7,405 sq. ft. $94
2018-05-17 Single Family Ranch; Traditional 4802 Ella Boulevard Houston, TX 77018 $449,000 2,167 sq. ft. 8,276 sq. ft. $207
2018-05-17 Single Family Other Style 3219 Tilson Lane Houston, TX 77080 $250,000 1,337 sq. ft. 7,405 sq. ft. $187
2018-05-17 Single Family Other Style 5027 Eagle Trail Houston, TX 77084 $167,500 1,635 sq. ft. 7,405 sq. ft. $102
2018-05-17 Single Family Traditional 982 Gardenia Drive Houston, TX 77018 $1,249,000 3,526 sq. ft. 9,148 sq. ft. $354
2018-05-17 Single Family Traditional 1215 Gray Moss Lane Houston, TX 77055 $1,275,000 30,492 sq. ft.
2018-05-17 Single Family Contemporary/Modern 339 Red Ripple Road Houston, TX 77091 $279,000 1,907 sq. ft. 6,098 sq. ft. $146
2018-05-17 Single Family Traditional 11006 Shumard Oak Court Houston, TX 77065 $223,900 2,800 sq. ft. 10,454 sq. ft. $80
2018-05-17 Single Family Traditional 17911 Zagar Lane Houston, TX 77090 $199,999 3,168 sq. ft. 12,632 sq. ft. $63
2018-05-17 Single Family Contemporary/Modern; Traditional 1318 Hunters Meadow Lane Houston, TX 77055 $750,000 3,072 sq. ft. $244
2018-05-17 Single Family Ranch 1735 43rd Street Houston, TX 77018 $399,000 2,406 sq. ft. 10,454 sq. ft. $166
2018-05-17 Single Family Traditional 16603 Foster Point Lane Houston, TX 77095 $299,900 2,598 sq. ft. 14,810 sq. ft. $115
2018-05-17 Single Family Traditional 9922 Totem Trail Houston, TX 77064 $179,000 1,783 sq. ft. 6,534 sq. ft. $100
2018-05-17 Single Family Traditional 12019 Sabine Woods Trail Houston, TX 77038 $221,495 2,646 sq. ft. $84
2018-05-17 Single Family Traditional 14723 Hamstead Park Dr Houston, TX 77084 $192,000 1,832 sq. ft. $105
2018-05-17 Single Family Traditional 2827 Kelly Brook Trail Houston, TX 77038 $112,000 1,370 sq. ft. 4,792 sq. ft. $82
2018-05-17 Single Family Traditional 9743 Refugio Court Houston, TX 77064 $299,900 2,402 sq. ft. 8,276 sq. ft. $125
2018-05-17 Single Family Traditional 17919 Zagar Lane Houston, TX 77090 $209,999 2,964 sq. ft. 9,583 sq. ft. $71
2018-05-17 Single Family Traditional 16134 Coleburn Drive Houston, TX 77095 $165,000 1,644 sq. ft. 6,098 sq. ft. $100
2018-05-17 Single Family Traditional 9102 Ferndale Place Drive Houston, TX 77064 $187,000 1,867 sq. ft. 5,663 sq. ft. $100
2018-05-17 Single Family Traditional 14118 Haynes Drive Houston, TX 77069 $330,000 3,005 sq. ft. 13,939 sq. ft. $110
2018-05-17 Single Family Traditional 9211 Rosewell Court Houston, TX 77095 $205,000 1,890 sq. ft. 6,534 sq. ft. $108
2018-05-17 Single Family Traditional 14626 Ravenhurst Lane Houston, TX 77070 $200,000 2,097 sq. ft. 9,148 sq. ft. $95
2018-05-17 Single Family Traditional 2019 Waterelm Drive Houston, TX 77084 $175,500 1,632 sq. ft. 6,534 sq. ft. $108
2018-05-17 Single Family Traditional 11506 Lakewood Place Houston, TX 77070 $330,000 3,508 sq. ft. 9,148 sq. ft. $94
2018-05-17 Single Family Traditional 19015 Buffalo River Way Houston, TX 77084 $245,000 2,832 sq. ft. 8,276 sq. ft. $87
2018-05-17 Single Family Contemporary/Modern; Traditional 1528 Whispering Pines Drive Houston, TX 77055 $715,000 3,462 sq. ft. 2,614 sq. ft. $207
2018-05-17 Single Family Traditional 2526 Talina Way Houston, TX 77080 $365,000 2,692 sq. ft. 9,148 sq. ft. $136
2018-05-17 Single Family Traditional 18159 Brooknoll Drive Houston, TX 77084 $165,000 1,928 sq. ft. 6,534 sq. ft. $86
2018-05-17 Single Family Traditional 1455 Martin Street Houston, TX 77018 $480,000 1,643 sq. ft. 6,534 sq. ft. $292
2018-05-17 Single Family Ranch; Traditional 6514 Apple Valley Lane Houston, TX 77069 $235,000 2,334 sq. ft. 11,326 sq. ft. $101
2018-05-17 Single Family Traditional 4739 Cashel Glen Drive Houston, TX 77069 $158,500 2,616 sq. ft. 5,227 sq. ft. $61
2018-05-17 Single Family Ranch 10502 Eddystone Drive Houston, TX 77043 $314,900 1,695 sq. ft. 8,276 sq. ft. $186
2018-05-17 Single Family Traditional 14402 Sandalfoot Street Houston, TX 77095 $269,750 2,898 sq. ft. 7,405 sq. ft. $93
2018-05-17 Single Family Ranch; Traditional 5802 Golden Forest Drive Houston, TX 77092 $222,600 2,044 sq. ft. 9,148 sq. ft. $109
2018-05-17 Single Family Traditional 17239 Eden Falls Ct Court Houston, TX 77095 $217,500 2,248 sq. ft. $97
2018-05-17 Single Family Traditional 5354 Pine Cliff Drive Houston, TX 77084 $114,900 2,094 sq. ft. 10,019 sq. ft. $55
2018-05-17 Single Family Traditional 4411 Rosslyn Road Houston, TX 77018 $699,000 3,100 sq. ft. 6,970 sq. ft. $225
2018-05-17 Single Family Traditional 16827 Ivy Wild Lane Houston, TX 77095 $300,000 3,312 sq. ft. 8,276 sq. ft. $91
2018-05-17 Single Family Traditional 6614 Preston Trail Drive Houston, TX 77069 $250,000 2,656 sq. ft. 4,792 sq. ft. $94
2018-05-17 Single Family Traditional 4415 Jura Drive Houston, TX 77084 $134,700 1,844 sq. ft. 6,534 sq. ft. $73
2018-05-17 Single Family Ranch 4743 Cairnvillage Street Houston, TX 77084 $112,000 1,004 sq. ft. 6,098 sq. ft. $112
2018-05-17 Single Family Traditional 12203 Laguna Terrace Drive Houston, TX 77041 $750,000 5,013 sq. ft. 11,761 sq. ft. $150
2018-05-17 Single Family Traditional 8110 Morning Rose Lane Houston, TX 77095 $499,990 4,416 sq. ft. 9,583 sq. ft. $113
2018-05-17 Single Family Traditional 11410 Oak Spring Drive Houston, TX 77043 $449,900 2,504 sq. ft. 10,454 sq. ft. $180
2018-05-17 Single Family Traditional 7519 Grand Terrace Court Houston, TX 77095 $187,500 1,765 sq. ft. 10,454 sq. ft. $106
2018-05-17 Single Family Traditional 4422 Hickory Grove Drive Houston, TX 77084 $159,000 1,517 sq. ft. 6,534 sq. ft. $105
2018-05-17 Single Family Traditional 19006 Ridge Hill Court Houston, TX 77084 $219,999 2,917 sq. ft. 10,454 sq. ft. $75
2018-05-17 Single Family Traditional 19418 Clevera Walk Lane Houston, TX 77084 $220,000 3,234 sq. ft. 5,227 sq. ft. $68
2018-05-16 Single Family Contemporary/Modern; Traditional 864 Wakefield Drive Houston, TX 77018 $355,000 2,184 sq. ft. 1,742 sq. ft. $163
2018-05-16 Single Family Traditional 15842 Knolls Lodge Drive Houston, TX 77095 $280,000 3,048 sq. ft. 8,276 sq. ft. $92
2018-05-16 Single Family Traditional 19414 Moonhollow Drive Houston, TX 77084 $160,000 1,715 sq. ft. 6,098 sq. ft. $93
2018-05-16 Single Family Traditional 16003 Mountain Shadows Drive Houston, TX 77084 $189,000 1,963 sq. ft. 7,405 sq. ft. $96
2018-05-16 Single Family Traditional 10518 Saddle Back Pass Houston, TX 77095 $195,000 1,713 sq. ft. 7,405 sq. ft. $114
2018-05-16 Single Family Traditional 7811 Highland Green Court Houston, TX 77070 $260,000 3,118 sq. ft. 6,970 sq. ft. $83
2018-05-16 Single Family Traditional 1314 Westwick Forest Lane Houston, TX 77043 $475,000 3,251 sq. ft. 6,098 sq. ft. $146
2018-05-16 Single Family Traditional 12218 Knobcrest Drive Houston, TX 77070 $270,000 3,276 sq. ft. 9,583 sq. ft. $82
2018-05-16 Single Family Traditional 12111 Flaxen Drive Houston, TX 77065 $150,000 1,325 sq. ft. 6,970 sq. ft. $113
2018-05-16 Single Family Traditional 9426 Rowan Oak Lane Houston, TX 77095 $245,000 2,176 sq. ft. 7,841 sq. ft. $113
2018-05-16 Single Family Traditional 2731 Stetson Lane Houston, TX 77043 $359,900 2,463 sq. ft. 8,712 sq. ft. $146
2018-05-16 Single Family Traditional 16422 Northumberland Drive Drive Houston, TX 77095 $223,000 2,132 sq. ft. 6,534 sq. ft. $105
2018-05-16 Single Family Traditional 7911 Park Hollow Court Houston, TX 77095 $198,500 1,890 sq. ft. 6,970 sq. ft. $105
2018-05-16 Single Family Traditional 1103 Baltic Lane Houston, TX 77090 $169,900 3,072 sq. ft. 10,454 sq. ft. $55
2018-05-16 Single Family English; Split Level; Traditional 16539 Obsidian Drive Houston, TX 77095 $375,800 3,857 sq. ft. 10,019 sq. ft. $97
2018-05-16 Single Family Contemporary/Modern 111 Rose Marble Court Houston, TX 77069 $349,000 2,708 sq. ft. 7,841 sq. ft. $129
2018-05-16 Single Family Traditional 4007 Bolivia Boulevard Houston, TX 77092 $275,000 22,216 sq. ft.
2018-05-16 Single Family Traditional 5419 Coral Gables Drive Houston, TX 77069 $199,500 2,280 sq. ft. 10,019 sq. ft. $88
2018-05-16 Single Family Traditional 10315 Crimson Canyon Drive Houston, TX 77095 $360,000 4,340 sq. ft. 8,712 sq. ft. $83
2018-05-16 Single Family Traditional 6110 Sienna Arbor Lane Houston, TX 77041 $589,000 4,259 sq. ft. 8,712 sq. ft. $138
2018-05-16 Single Family Traditional 13326 Anderson Woods Dr Houston, TX 77070 $264,900 3,078 sq. ft. 7,841 sq. ft. $86
2018-05-16 Single Family Traditional 10610 Spring Brook Drive Houston, TX 77041 $244,500 2,162 sq. ft. 5,227 sq. ft. $113
2018-05-16 Single Family Traditional 2731 Kings Canyon Court Houston, TX 77067 $129,900 1,491 sq. ft. 6,098 sq. ft. $87
2018-05-16 Single Family Traditional 13603 Dempley Drive Houston, TX 77041 $219,000 2,610 sq. ft. 6,970 sq. ft. $84
2018-05-16 Single Family Traditional 13814 Paradise Valley Drive Houston, TX 77069 $154,900 1,921 sq. ft. 6,970 sq. ft. $81
2018-05-16 Single Family Contemporary/Modern 5031 Bayou Ridge Drive Houston, TX 77092 $725,000 3,081 sq. ft. 6,098 sq. ft. $235
2018-05-16 Single Family Ranch 5125 Lido Lane Houston, TX 77092 $259,900 1,223 sq. ft. 6,970 sq. ft. $213
2018-05-16 Single Family Traditional 7703 Creek Glen Drive Houston, TX 77095 $250,000 2,285 sq. ft. 11,326 sq. ft. $109
2018-05-16 Single Family Ranch 14730 Silver Sands Street Houston, TX 77095 $235,000 1,854 sq. ft. 7,841 sq. ft. $127
2018-05-16 Single Family Traditional 7207 Skybright Lane Houston, TX 77095 $150,000 1,402 sq. ft. 10,454 sq. ft. $107
2018-05-16 Single Family Traditional 7807 Mauvewood Drive Houston, TX 77040 $116,900 1,162 sq. ft. 2,614 sq. ft. $101
2018-05-16 Single Family Mediterranean; Traditional 14239 Mindy Park Lane Houston, TX 77069 $789,520 6,005 sq. ft. 26,136 sq. ft. $131
2018-05-16 Single Family Contemporary/Modern 1513 Bayram Drive Houston, TX 77055 $1,250,000 4,334 sq. ft. 9,583 sq. ft. $288
2018-05-16 Single Family Traditional 1823 Woodbend Village Court Houston, TX 77055 $269,000 1,370 sq. ft. 2,178 sq. ft. $196
2018-05-16 Single Family Traditional 13603 Highland Cove Drive Houston, TX 77070 $280,000 3,464 sq. ft. 9,148 sq. ft. $81
2018-05-16 Single Family Traditional 14911 Oak Bluff Court Houston, TX 77070 $210,000 2,545 sq. ft. 8,712 sq. ft. $83
2018-05-16 Single Family Other Style 10310 Elk Point Lane Houston, TX 77064 $180,000 1,764 sq. ft. 6,098 sq. ft. $102
2018-05-16 Single Family Traditional 2918 Intrepid Elm Street Houston, TX 77084 $198,900 1,851 sq. ft. 5,663 sq. ft. $107
2018-05-16 Single Family Traditional 14019 Falba Road Houston, TX 77070 $600,000 5,160 sq. ft. 17,424 sq. ft. $116
2018-05-16 Single Family Traditional 6002 Greenmont Drive Houston, TX 77092 $275,000 3,269 sq. ft. 10,454 sq. ft. $84
2018-05-16 Single Family Other Style 2615 Colwell Road Houston, TX 77068 $270,000 2,739 sq. ft. 22,651 sq. ft. $99
2018-05-16 Single Family Traditional 1823 Tucumcari Drive Houston, TX 77090 $140,000 2,595 sq. ft. 9,148 sq. ft. $54
2018-05-16 Single Family Traditional 10722 Buffalo Bend Drive Houston, TX 77064 $139,900 1,496 sq. ft. 4,792 sq. ft. $94
2018-05-16 Single Family Traditional 17702 Lakes Of Pine Forest Drive Houston, TX 77084 $299,900 3,271 sq. ft. 7,841 sq. ft. $92
2018-05-16 Single Family Traditional 19610 Mallard Lake Lane Houston, TX 77084 $140,000 1,819 sq. ft. 7,841 sq. ft. $77
2018-05-16 Single Family Ranch 5427 Crown Colony Houston, TX 77069 $260,000 2,686 sq. ft. 10,454 sq. ft. $97
2018-05-16 Single Family Contemporary/Modern 18530 Meadows Way Houston, TX 77084 $139,900 1,038 sq. ft. 4,356 sq. ft. $135
2018-05-15 Single Family Traditional 9907 Golden Sunshine Drive Houston, TX 77064 $179,000 2,214 sq. ft. 7,405 sq. ft. $81
2018-05-15 Single Family Traditional 1810 Foxlake Drive Houston, TX 77084 $159,000 2,159 sq. ft. 5,227 sq. ft. $74
2018-05-15 Single Family Traditional 10310 Juniper Glen Drive Houston, TX 77041 $179,900 1,380 sq. ft. 6,970 sq. ft. $130
2018-05-15 Single Family Colonial 11918 Cypresswood Drive Houston, TX 77070 $185,000 3,087 sq. ft. 9,148 sq. ft. $60
2018-05-15 Single Family Split Level; Traditional 1706 Lacewing Lane Houston, TX 77067 $145,000 1,436 sq. ft. 6,970 sq. ft. $101
2018-05-15 Single Family Traditional 1819 Cheshire Lane Houston, TX 77018 $407,000 1,253 sq. ft. 6,970 sq. ft. $325
2018-05-15 Single Family Traditional 17511 Prospect Meadows Drive Houston, TX 77095 $208,000 2,225 sq. ft. 5,227 sq. ft. $93
2018-05-15 Single Family Traditional 757 Rosie Street Houston, TX 77091 $49,900 1,483 sq. ft. 10,890 sq. ft. $34
2018-05-15 Single Family Traditional 10307 Autumn Meadow Lane Houston, TX 77064 $149,000 1,626 sq. ft. 6,098 sq. ft. $92
2018-05-15 Single Family Traditional 813 31st Street Houston, TX 77018 $1,349,000 5,550 sq. ft. 15,682 sq. ft. $243
2018-05-15 Single Family Traditional 11610 Pecan Creek Drive Houston, TX 77043 $318,000 3,500 sq. ft. 6,098 sq. ft. $91
2018-05-15 Single Family Traditional 15218 Foster Springs Lane Houston, TX 77095 $265,000 2,991 sq. ft. 7,405 sq. ft. $89
2018-05-15 Single Family Ranch; Traditional 9805 Shadow Wood Drive Houston, TX 77080 $824,524 3,098 sq. ft. 78,408 sq. ft. $266
2018-05-15 Single Family Colonial 701 W 31st Street Houston, TX 77018 $575,000 1,740 sq. ft. 14,375 sq. ft. $330
2018-05-15 Single Family Traditional 5526 Deep Forest Drive Houston, TX 77092 $220,000 3,215 sq. ft. 8,712 sq. ft. $68
2018-05-15 Single Family Traditional 16931 Terrace Park Drive Houston, TX 77095 $201,000 2,133 sq. ft. 6,970 sq. ft. $94
2018-05-15 Single Family Traditional 5930 Pine Arbor Drive Houston, TX 77066 $269,000 3,773 sq. ft. 10,890 sq. ft. $71
2018-05-15 Single Family Traditional 5715 Afton Ridge Lane Houston, TX 77084 $185,000 1,850 sq. ft. 5,663 sq. ft. $100
2018-05-15 Single Family Traditional 6613 Rolla Street Houston, TX 77055 $1,275,000 4,484 sq. ft. 8,276 sq. ft. $284
2018-05-15 Single Family Traditional 15834 Oak Mountain Drive Houston, TX 77095 $144,900 2,045 sq. ft. 8,276 sq. ft. $71
2018-05-15 Single Family Traditional 11726 Quail Creek Drive Houston, TX 77070 $389,000 3,631 sq. ft. 15,246 sq. ft. $107
2018-05-15 Single Family Other Style 2510 Creekhickory Road Houston, TX 77068 $199,000 2,000 sq. ft. 26,136 sq. ft. $100
2018-05-15 Single Family Traditional 7134 Bristol Ridge Drive Houston, TX 77095 $260,000 3,274 sq. ft. 6,970 sq. ft. $79
2018-05-15 Single Family Traditional 2635 Palmetto Valley Drive Houston, TX 77038 $213,995 2,372 sq. ft. $90
2018-05-15 Single Family Traditional 4931 Orchard Garden Way Houston, TX 77066 $225,000 2,817 sq. ft. 5,663 sq. ft. $80
2018-05-15 Single Family Mediterranean 1506 Jacquelyn Drive Houston, TX 77055 $675,000 3,091 sq. ft. 3,485 sq. ft. $218
2018-05-15 Single Family Traditional 5918 Solar Point Lane Houston, TX 77041 $490,000 4,354 sq. ft. 10,454 sq. ft. $113
2018-05-15 Single Family Ranch; Traditional 12406 Normont Drive Houston, TX 77070 $299,950 2,682 sq. ft. 10,019 sq. ft. $112
2018-05-15 Single Family Traditional 6107 Stilson Branch Lane Houston, TX 77092 $289,000 2,179 sq. ft. 3,920 sq. ft. $133
2018-05-15 Single Family Traditional 5214 Pine Arbor Drive Houston, TX 77066 $284,999 2,878 sq. ft. 9,583 sq. ft. $99
2018-05-15 Single Family Traditional 9823 Bent Spur Lane Houston, TX 77064 $189,000 2,080 sq. ft. 6,534 sq. ft. $91
2018-05-15 Single Family Traditional 5107 Olympia Fields Lane Houston, TX 77069 $219,500 2,397 sq. ft. 7,405 sq. ft. $92
2018-05-15 Single Family Traditional 1930 Beaver Bend Road Houston, TX 77088 $120,000 1,088 sq. ft. 5,663 sq. ft. $110
2018-05-15 Single Family Traditional 3311 Egret Meadow Lane Houston, TX 77084 $269,000 3,060 sq. ft. 7,841 sq. ft. $88
2018-05-15 Single Family Colonial 6607 Overlook Drive Houston, TX 77041 $140,000 1,643 sq. ft. 7,841 sq. ft. $85
2018-05-15 Single Family Ranch 7518 Sunbonnet Lane Houston, TX 77064 $98,000 1,402 sq. ft. 7,405 sq. ft. $70